Time;durP1;ratioP1;P1;durP2;ratioP2;P2;SDS_P1;SDS_P2;PMS_P1;PMS_P2;Temp;Humidity;BMP_temperature;BMP_pressure;BME280_temperature;BME280_humidity;BME280_pressure;Samples;Min_cycle;Max_cycle;Signal;HPM_P1;HPM_P2
2023/07/29 00:00:47;;;;;;;1.50;1.20;;;;;;;-128.00;-1.00;-1.00;98034;295;1004025;-32
2023/07/29 00:03:12;;;;;;;2.00;1.90;;;;;;;-128.00;-1.00;-1.00;97937;295;1003552;-34
2023/07/29 00:05:38;;;;;;;1.70;1.50;;;;;;;-128.00;-1.00;-1.00;97870;295;1002870;-34
2023/07/29 00:08:04;;;;;;;1.40;1.00;;;;;;;-128.00;-1.00;-1.00;97866;295;1004146;-34
2023/07/29 00:10:31;;;;;;;1.40;1.10;;;;;;;-128.00;-1.00;-1.00;97983;295;1004606;-32
2023/07/29 00:12:58;;;;;;;2.50;1.60;;;;;;;-128.00;-1.00;-1.00;97859;295;1003100;-30
2023/07/29 00:15:24;;;;;;;1.90;1.40;;;;;;;-128.00;-1.00;-1.00;97821;295;1002705;-30
2023/07/29 00:17:49;;;;;;;1.30;1.10;;;;;;;-128.00;-1.00;-1.00;97870;295;1002833;-34
2023/07/29 00:20:15;;;;;;;1.20;1.10;;;;;;;-128.00;-1.00;-1.00;97904;295;1004626;-30
2023/07/29 00:22:41;;;;;;;1.90;1.50;;;;;;;-128.00;-1.00;-1.00;97956;295;1004967;-34
2023/07/29 00:25:07;;;;;;;1.80;1.30;;;;;;;-128.00;-1.00;-1.00;97976;295;1002396;-30
2023/07/29 00:27:33;;;;;;;2.10;1.10;;;;;;;-128.00;-1.00;-1.00;97867;295;1004065;-33
2023/07/29 00:29:58;;;;;;;3.50;1.50;;;;;;;-128.00;-1.00;-1.00;97924;295;1003665;-30
2023/07/29 00:32:24;;;;;;;1.60;1.50;;;;;;;-128.00;-1.00;-1.00;97936;295;1002970;-30
2023/07/29 00:34:49;;;;;;;2.40;1.40;;;;;;;-128.00;-1.00;-1.00;98069;295;1002582;-30
2023/07/29 00:37:15;;;;;;;2.70;1.50;;;;;;;-128.00;-1.00;-1.00;98026;295;1002711;-37
2023/07/29 01:19:06;;;;;;;4.10;2.30;;;;;;;-99.55;19.20;19749.73;19605;295;8046478;-37
2023/07/29 01:21:31;;;;;;;2.20;1.90;;;;;;;-128.00;-1.00;-1.00;18214;285;7504620;-31
2023/07/29 01:23:58;;;;;;;2.10;1.80;;;;;;;-128.00;-1.00;-1.00;18908;287;7504871;-36
2023/07/29 01:26:24;;;;;;;1.90;1.60;;;;;;;-128.00;-1.00;-1.00;18484;295;7504545;-32
2023/07/29 01:28:50;;;;;;;1.70;1.30;;;;;;;-128.00;-1.00;-1.00;18482;295;7505059;-32
2023/07/29 01:31:24;;;;;;;1.30;1.20;;;;;;;-128.00;-1.00;-1.00;18470;295;7505938;-32
2023/07/29 01:33:56;;;;;;;1.70;1.40;;;;;;;-128.00;-1.00;-1.00;18476;295;7504571;-32
2023/07/29 01:36:23;;;;;;;1.80;1.40;;;;;;;-128.00;-1.00;-1.00;18464;295;7505039;-33
2023/07/29 01:38:48;;;;;;;1.30;1.20;;;;;;;-128.00;-1.00;-1.00;18458;339;7505956;-32
2023/07/29 01:41:14;;;;;;;2.00;1.60;;;;;;;-128.00;-1.00;-1.00;18488;295;7506159;-32
2023/07/29 01:43:43;;;;;;;5.40;2.50;;;;;;;-128.00;-1.00;-1.00;18874;335;7505011;-32
2023/07/29 01:46:13;;;;;;;2.70;2.50;;;;;;;-128.00;-1.00;-1.00;18500;295;7505900;-36
2023/07/29 01:48:39;;;;;;;2.10;1.80;;;;;;;-128.00;-1.00;-1.00;18475;295;7506030;-35
2023/07/29 01:51:05;;;;;;;1.00;0.90;;;;;;;-128.00;-1.00;-1.00;18488;295;7504641;-35
2023/07/29 01:53:31;;;;;;;1.50;1.40;;;;;;;-128.00;-1.00;-1.00;18458;287;7506823;-35
2023/07/29 01:55:57;;;;;;;1.70;1.40;;;;;;;-128.00;-1.00;-1.00;18463;295;7504384;-32
2023/07/29 01:58:23;;;;;;;1.80;1.00;;;;;;;-128.00;-1.00;-1.00;18469;295;7504532;-36
2023/07/29 02:00:48;;;;;;;2.70;1.60;;;;;;;-128.00;-1.00;-1.00;18506;295;7506009;-33
2023/07/29 02:03:15;;;;;;;2.90;2.40;;;;;;;-128.00;-1.00;-1.00;18904;348;7504763;-36
2023/07/29 02:05:43;;;;;;;2.90;1.90;;;;;;;-128.00;-1.00;-1.00;18887;295;7504397;-35
2023/07/29 02:08:09;;;;;;;2.40;1.60;;;;;;;-128.00;-1.00;-1.00;18499;283;7505850;-31
2023/07/29 02:10:35;;;;;;;2.00;1.80;;;;;;;-128.00;-1.00;-1.00;18463;295;7505983;-31
2023/07/29 02:13:01;;;;;;;3.00;2.80;;;;;;;-128.00;-1.00;-1.00;18467;295;7504973;-31
2023/07/29 02:15:27;;;;;;;4.20;3.60;;;;;;;-128.00;-1.00;-1.00;18483;295;7504567;-31
2023/07/29 02:17:53;;;;;;;8.10;2.60;;;;;;;-128.00;-1.00;-1.00;18486;319;7504398;-31
2023/07/29 02:20:19;;;;;;;3.40;3.10;;;;;;;-128.00;-1.00;-1.00;18870;294;7505709;-35
2023/07/29 02:22:45;;;;;;;3.80;2.20;;;;;;;-128.00;-1.00;-1.00;18877;335;7504435;-35
2023/07/29 02:25:12;;;;;;;2.50;2.30;;;;;;;-128.00;-1.00;-1.00;18873;287;7504549;-32
2023/07/29 02:27:38;;;;;;;3.50;3.00;;;;;;;-128.00;-1.00;-1.00;18886;295;7504784;-31
2023/07/29 02:30:05;;;;;;;3.30;2.50;;;;;;;-128.00;-1.00;-1.00;18874;335;7504649;-35
2023/07/29 02:32:30;;;;;;;2.00;1.90;;;;;;;-128.00;-1.00;-1.00;18459;294;7504760;-31
2023/07/29 02:34:56;;;;;;;3.10;2.60;;;;;;;-128.00;-1.00;-1.00;18888;295;7505183;-35
2023/07/29 02:37:22;;;;;;;7.20;2.00;;;;;;;-128.00;-1.00;-1.00;18873;347;7504277;-35
2023/07/29 02:39:49;;;;;;;2.20;2.00;;;;;;;-128.00;-1.00;-1.00;18897;295;7505346;-32
2023/07/29 02:42:15;;;;;;;2.50;2.30;;;;;;;-128.00;-1.00;-1.00;18891;283;7505282;-36
2023/07/29 02:44:41;;;;;;;2.70;2.50;;;;;;;-128.00;-1.00;-1.00;18866;303;7504889;-32
2023/07/29 02:47:07;;;;;;;3.00;1.70;;;;;;;-128.00;-1.00;-1.00;18851;319;7505095;-32
2023/07/29 02:49:33;;;;;;;3.80;2.20;;;;;;;-128.00;-1.00;-1.00;18865;295;7505561;-34
2023/07/29 02:52:00;;;;;;;4.70;3.10;;;;;;;-128.00;-1.00;-1.00;18902;295;7504680;-35
2023/07/29 02:54:26;;;;;;;3.00;2.70;;;;;;;-128.00;-1.00;-1.00;18869;294;7504855;-31
2023/07/29 02:56:53;;;;;;;2.30;1.90;;;;;;;-128.00;-1.00;-1.00;18877;294;7505894;-35
2023/07/29 02:59:18;;;;;;;2.40;2.20;;;;;;;-128.00;-1.00;-1.00;18462;295;7505068;-35
2023/07/29 03:01:44;;;;;;;3.80;2.30;;;;;;;-128.00;-1.00;-1.00;18868;347;7505439;-31
2023/07/29 03:04:12;;;;;;;3.10;2.40;;;;;;;-128.00;-1.00;-1.00;18890;295;7504151;-34
2023/07/29 03:06:38;;;;;;;4.70;2.80;;;;;;;-128.00;-1.00;-1.00;18463;294;7506215;-31
2023/07/29 03:09:04;;;;;;;2.50;2.30;;;;;;;-128.00;-1.00;-1.00;18474;288;7506224;-36
2023/07/29 03:11:30;;;;;;;6.80;3.00;;;;;;;-128.00;-1.00;-1.00;18487;303;7506024;-34
2023/07/29 03:13:56;;;;;;;6.00;2.30;;;;;;;-128.00;-1.00;-1.00;18492;294;7504840;-31
2023/07/29 03:16:22;;;;;;;2.80;2.30;;;;;;;-128.00;-1.00;-1.00;18478;295;7504451;-35
2023/07/29 03:18:49;;;;;;;4.60;2.60;;;;;;;-128.00;-1.00;-1.00;18451;294;7504321;-35
2023/07/29 03:21:14;;;;;;;5.50;2.80;;;;;;;-128.00;-1.00;-1.00;18496;343;7504682;-33
2023/07/29 03:23:41;;;;;;;3.80;2.70;;;;;;;-128.00;-1.00;-1.00;18875;294;7504769;-31
2023/07/29 03:26:10;;;;;;;8.70;3.10;;;;;;;-128.00;-1.00;-1.00;18890;295;7504834;-31
2023/07/29 03:28:38;;;;;;;3.00;2.70;;;;;;;-128.00;-1.00;-1.00;18481;294;7505102;-34
2023/07/29 03:31:03;;;;;;;2.80;2.20;;;;;;;-128.00;-1.00;-1.00;18462;294;7506067;-31
2023/07/29 03:33:29;;;;;;;4.10;2.30;;;;;;;-128.00;-1.00;-1.00;18477;347;7504860;-36
2023/07/29 03:35:54;;;;;;;4.20;2.50;;;;;;;-128.00;-1.00;-1.00;18483;294;7505444;-36
2023/07/29 03:38:21;;;;;;;3.20;2.90;;;;;;;-128.00;-1.00;-1.00;18853;295;7504666;-35
2023/07/29 03:40:47;;;;;;;4.30;3.80;;;;;;;-128.00;-1.00;-1.00;18889;294;7506261;-36
2023/07/29 03:43:13;;;;;;;2.90;2.70;;;;;;;-128.00;-1.00;-1.00;18885;294;7505622;-32
2023/07/29 03:45:40;;;;;;;4.40;3.30;;;;;;;-128.00;-1.00;-1.00;18869;296;7504562;-36
2023/07/29 03:48:06;;;;;;;6.40;3.30;;;;;;;-128.00;-1.00;-1.00;18887;294;7505442;-33
2023/07/29 03:50:33;;;;;;;14.70;3.00;;;;;;;-128.00;-1.00;-1.00;18874;335;7504148;-32
2023/07/29 03:52:59;;;;;;;3.50;3.20;;;;;;;-128.00;-1.00;-1.00;18463;295;7504097;-35
2023/07/29 03:55:25;;;;;;;3.10;2.70;;;;;;;-128.00;-1.00;-1.00;18460;295;7505463;-36
2023/07/29 03:57:51;;;;;;;4.50;3.60;;;;;;;-128.00;-1.00;-1.00;18887;294;7504790;-36
2023/07/29 04:00:17;;;;;;;6.00;4.00;;;;;;;-128.00;-1.00;-1.00;18861;296;7504541;-32
2023/07/29 04:02:45;;;;;;;8.10;3.90;;;;;;;-128.00;-1.00;-1.00;18873;335;7504586;-32
2023/07/29 04:05:11;;;;;;;3.90;3.10;;;;;;;-128.00;-1.00;-1.00;18512;335;7505920;-36
2023/07/29 04:07:37;;;;;;;4.30;3.60;;;;;;;-128.00;-1.00;-1.00;18492;295;7504909;-32
2023/07/29 04:10:03;;;;;;;9.70;3.00;;;;;;;-128.00;-1.00;-1.00;18501;295;7505530;-35
2023/07/29 04:12:29;;;;;;;3.70;2.70;;;;;;;-128.00;-1.00;-1.00;18476;294;7505011;-36
2023/07/29 04:14:55;;;;;;;3.00;2.80;;;;;;;-128.00;-1.00;-1.00;18874;302;7506000;-34
2023/07/29 04:17:21;;;;;;;4.70;3.00;;;;;;;-128.00;-1.00;-1.00;18882;295;7504565;-34
2023/07/29 04:19:49;;;;;;;5.50;3.00;;;;;;;-128.00;-1.00;-1.00;18474;347;7504369;-35
2023/07/29 04:22:15;;;;;;;13.90;3.40;;;;;;;-128.00;-1.00;-1.00;18483;311;7505012;-35
2023/07/29 04:24:41;;;;;;;6.40;3.90;;;;;;;-128.00;-1.00;-1.00;18481;294;7505112;-32
2023/07/29 04:27:07;;;;;;;14.40;2.50;;;;;;;-128.00;-1.00;-1.00;18488;294;7503940;-32
2023/07/29 04:29:35;;;;;;;4.20;2.60;;;;;;;-128.00;-1.00;-1.00;18854;323;7505113;-32
2023/07/29 04:32:02;;;;;;;1.80;1.60;;;;;;;-128.00;-1.00;-1.00;18455;331;7506007;-36
2023/07/29 04:34:28;;;;;;;2.80;2.50;;;;;;;-128.00;-1.00;-1.00;18477;294;7505229;-36
2023/07/29 04:36:54;;;;;;;4.40;3.50;;;;;;;-128.00;-1.00;-1.00;18500;296;7504550;-36
2023/07/29 04:39:20;;;;;;;4.90;2.10;;;;;;;-128.00;-1.00;-1.00;18498;339;7507007;-36
2023/07/29 04:41:46;;;;;;;3.50;2.60;;;;;;;-128.00;-1.00;-1.00;18493;303;7504820;-32
2023/07/29 04:44:11;;;;;;;4.30;2.30;;;;;;;-128.00;-1.00;-1.00;18453;283;7504686;-36
2023/07/29 04:46:38;;;;;;;3.70;3.10;;;;;;;-128.00;-1.00;-1.00;18864;295;7504993;-36
2023/07/29 04:49:04;;;;;;;2.00;1.70;;;;;;;-128.00;-1.00;-1.00;18465;295;7504834;-31
2023/07/29 04:51:31;;;;;;;4.70;2.70;;;;;;;-128.00;-1.00;-1.00;18487;294;7505012;-32
2023/07/29 04:53:57;;;;;;;2.50;1.60;;;;;;;-128.00;-1.00;-1.00;18450;346;7504206;-32
2023/07/29 04:56:23;;;;;;;3.10;2.40;;;;;;;-128.00;-1.00;-1.00;18476;335;7505073;-35
2023/07/29 04:58:49;;;;;;;2.60;1.90;;;;;;;-128.00;-1.00;-1.00;18468;295;7505793;-32
2023/07/29 05:01:15;;;;;;;2.50;2.30;;;;;;;-128.00;-1.00;-1.00;18462;347;7506215;-32
2023/07/29 05:03:41;;;;;;;5.50;2.60;;;;;;;-128.00;-1.00;-1.00;18867;295;7505435;-36
2023/07/29 05:06:07;;;;;;;3.50;3.20;;;;;;;-128.00;-1.00;-1.00;18855;295;7504766;-36
2023/07/29 05:08:34;;;;;;;5.20;2.20;;;;;;;-128.00;-1.00;-1.00;18877;294;7504541;-36
2023/07/29 05:11:00;;;;;;;2.60;2.30;;;;;;;-128.00;-1.00;-1.00;18876;347;7506343;-32
2023/07/29 05:13:27;;;;;;;3.10;2.80;;;;;;;-128.00;-1.00;-1.00;18901;295;7505319;-34
2023/07/29 05:15:53;;;;;;;2.60;2.30;;;;;;;-128.00;-1.00;-1.00;18884;312;7504638;-33
2023/07/29 05:18:19;;;;;;;2.40;2.10;;;;;;;-128.00;-1.00;-1.00;18871;295;7504492;-36
2023/07/29 05:20:46;;;;;;;2.40;1.50;;;;;;;-128.00;-1.00;-1.00;18486;295;7505580;-33
2023/07/29 05:23:12;;;;;;;2.00;1.90;;;;;;;-128.00;-1.00;-1.00;18468;295;7505865;-35
2023/07/29 05:25:38;;;;;;;3.00;1.90;;;;;;;-128.00;-1.00;-1.00;18449;295;7504962;-37
2023/07/29 05:28:04;;;;;;;2.70;1.90;;;;;;;-128.00;-1.00;-1.00;18884;299;7504327;-32
2023/07/29 05:33:08;;;;;;;2.40;1.50;;;;;;;-128.00;-1.00;-1.00;18460;339;7505333;-31
2023/07/29 05:35:33;;;;;;;1.80;1.70;;;;;;;-128.00;-1.00;-1.00;18456;295;7505334;-31
2023/07/29 05:37:59;;;;;;;3.40;1.80;;;;;;;-128.00;-1.00;-1.00;18480;294;7505080;-31
2023/07/29 05:40:25;;;;;;;1.70;1.50;;;;;;;-128.00;-1.00;-1.00;18919;294;7504644;-32
2023/07/29 05:42:52;;;;;;;1.20;1.10;;;;;;;-128.00;-1.00;-1.00;18906;295;7504912;-35
2023/07/29 05:45:18;;;;;;;1.80;1.40;;;;;;;-128.00;-1.00;-1.00;18862;343;7504437;-32
2023/07/29 05:47:44;;;;;;;1.90;1.60;;;;;;;-128.00;-1.00;-1.00;18895;295;7504355;-36
2023/07/29 05:50:11;;;;;;;2.90;1.70;;;;;;;-128.00;-1.00;-1.00;18898;283;7504739;-33
2023/07/29 05:52:37;;;;;;;1.90;1.40;;;;;;;-128.00;-1.00;-1.00;18886;288;7504692;-35
2023/07/29 05:55:03;;;;;;;2.10;1.20;;;;;;;-128.00;-1.00;-1.00;18884;311;7505439;-33
2023/07/29 05:57:29;;;;;;;3.90;1.50;;;;;;;-128.00;-1.00;-1.00;18508;295;7504387;-32
2023/07/29 05:59:56;;;;;;;2.20;1.40;;;;;;;-128.00;-1.00;-1.00;18917;344;7504135;-31
2023/07/29 06:02:21;;;;;;;1.60;1.00;;;;;;;-128.00;-1.00;-1.00;18477;294;7506121;-31
2023/07/29 06:04:47;;;;;;;2.70;1.00;;;;;;;-128.00;-1.00;-1.00;18472;294;7505136;-36
2023/07/29 06:07:12;;;;;;;1.40;1.30;;;;;;;-128.00;-1.00;-1.00;18503;339;7505424;-36
2023/07/29 06:09:39;;;;;;;1.30;1.20;;;;;;;-128.00;-1.00;-1.00;18491;347;7504898;-36
2023/07/29 06:12:06;;;;;;;2.30;1.10;;;;;;;-128.00;-1.00;-1.00;18461;295;7506092;-36
2023/07/29 06:14:31;;;;;;;2.00;1.00;;;;;;;-128.00;-1.00;-1.00;18499;346;7504837;-32
2023/07/29 06:16:57;;;;;;;2.60;1.20;;;;;;;-128.00;-1.00;-1.00;18463;295;7506661;-36
2023/07/29 06:19:23;;;;;;;1.30;1.00;;;;;;;-128.00;-1.00;-1.00;18877;295;7505171;-32
2023/07/29 06:21:52;;;;;;;13.90;2.00;;;;;;;-128.00;-1.00;-1.00;18467;288;7504663;-34
2023/07/29 06:24:17;;;;;;;1.00;0.70;;;;;;;-128.00;-1.00;-1.00;18480;287;7506360;-38
2023/07/29 06:26:43;;;;;;;1.20;0.80;;;;;;;-128.00;-1.00;-1.00;18503;295;7505899;-36
2023/07/29 06:29:09;;;;;;;16.60;1.40;;;;;;;-128.00;-1.00;-1.00;18487;347;7505773;-33
2023/07/29 06:31:35;;;;;;;2.20;1.00;;;;;;;-128.00;-1.00;-1.00;18873;347;7504581;-33
2023/07/29 06:34:01;;;;;;;2.00;1.10;;;;;;;-128.00;-1.00;-1.00;18885;294;7504168;-36
2023/07/29 06:36:27;;;;;;;1.10;0.90;;;;;;;-128.00;-1.00;-1.00;18862;295;7504879;-36
2023/07/29 06:38:54;;;;;;;1.30;0.90;;;;;;;-128.00;-1.00;-1.00;18848;295;7504231;-33
2023/07/29 06:41:20;;;;;;;1.10;0.90;;;;;;;-128.00;-1.00;-1.00;18885;295;7504835;-32
2023/07/29 06:43:46;;;;;;;4.40;0.80;;;;;;;-128.00;-1.00;-1.00;18878;295;7506234;-36
2023/07/29 06:46:12;;;;;;;1.10;0.90;;;;;;;-128.00;-1.00;-1.00;18879;295;7504663;-33
2023/07/29 06:48:39;;;;;;;2.70;0.80;;;;;;;-128.00;-1.00;-1.00;18876;294;7504595;-37
2023/07/29 06:51:05;;;;;;;2.10;0.90;;;;;;;-128.00;-1.00;-1.00;18896;294;7504909;-33
2023/07/29 06:53:31;;;;;;;1.00;0.80;;;;;;;-128.00;-1.00;-1.00;18896;287;7505814;-36
2023/07/29 06:55:57;;;;;;;2.50;1.10;;;;;;;-128.00;-1.00;-1.00;18876;335;7504456;-36
2023/07/29 06:58:24;;;;;;;1.00;0.80;;;;;;;-128.00;-1.00;-1.00;18872;295;7504614;-33
2023/07/29 07:00:50;;;;;;;1.50;0.90;;;;;;;-128.00;-1.00;-1.00;18858;295;7504793;-36
2023/07/29 07:03:16;;;;;;;1.50;1.00;;;;;;;-128.00;-1.00;-1.00;18882;295;7505291;-34
2023/07/29 07:05:42;;;;;;;0.80;0.60;;;;;;;-128.00;-1.00;-1.00;18900;294;7505088;-35
2023/07/29 07:08:08;;;;;;;1.00;0.60;;;;;;;-128.00;-1.00;-1.00;18887;347;7505400;-32
2023/07/29 07:10:35;;;;;;;0.70;0.50;;;;;;;-128.00;-1.00;-1.00;18874;294;7504571;-35
2023/07/29 07:13:01;;;;;;;1.20;0.80;;;;;;;-128.00;-1.00;-1.00;18871;331;7504227;-34
2023/07/29 07:15:27;;;;;;;0.40;0.40;;;;;;;-128.00;-1.00;-1.00;18872;303;7504625;-32
2023/07/29 07:17:53;;;;;;;0.80;0.80;;;;;;;-128.00;-1.00;-1.00;18450;318;7506434;-35
2023/07/29 07:20:19;;;;;;;0.60;0.60;;;;;;;-128.00;-1.00;-1.00;18450;294;7506943;-37
2023/07/29 07:22:45;;;;;;;0.60;0.50;;;;;;;-128.00;-1.00;-1.00;18482;295;7504584;-36
2023/07/29 07:25:11;;;;;;;0.80;0.70;;;;;;;-128.00;-1.00;-1.00;18856;297;7503898;-32
2023/07/29 07:27:38;;;;;;;1.10;0.60;;;;;;;-128.00;-1.00;-1.00;18869;295;7506024;-36
2023/07/29 07:30:04;;;;;;;3.40;0.80;;;;;;;-128.00;-1.00;-1.00;18888;347;7505039;-33
2023/07/29 07:32:30;;;;;;;0.60;0.60;;;;;;;-128.00;-1.00;-1.00;18506;346;7504478;-37
2023/07/29 07:34:56;;;;;;;1.20;0.60;;;;;;;-128.00;-1.00;-1.00;18870;295;7505258;-36
2023/07/29 07:37:22;;;;;;;1.10;0.70;;;;;;;-128.00;-1.00;-1.00;18880;294;7505311;-36
2023/07/29 07:39:48;;;;;;;1.70;0.80;;;;;;;-128.00;-1.00;-1.00;18892;296;7504922;-36
2023/07/29 07:42:14;;;;;;;0.70;0.50;;;;;;;-128.00;-1.00;-1.00;18881;295;7504648;-36
2023/07/29 07:44:40;;;;;;;0.90;0.70;;;;;;;-128.00;-1.00;-1.00;18871;295;7504603;-35
2023/07/29 07:47:07;;;;;;;1.00;0.70;;;;;;;-128.00;-1.00;-1.00;18909;335;7504558;-36
2023/07/29 07:49:33;;;;;;;0.60;0.60;;;;;;;-128.00;-1.00;-1.00;18855;320;7504539;-36
2023/07/29 07:51:59;;;;;;;7.20;0.50;;;;;;;-128.00;-1.00;-1.00;18864;295;7504795;-32
2023/07/29 07:54:26;;;;;;;3.10;0.60;;;;;;;-128.00;-1.00;-1.00;18848;347;7504967;-32
2023/07/29 07:56:52;;;;;;;0.60;0.60;;;;;;;-128.00;-1.00;-1.00;18865;295;7505513;-33
2023/07/29 07:59:19;;;;;;;1.00;0.70;;;;;;;-128.00;-1.00;-1.00;18879;295;7505104;-32
2023/07/29 08:01:44;;;;;;;0.60;0.60;;;;;;;-128.00;-1.00;-1.00;18490;294;7504556;-32
2023/07/29 08:04:10;;;;;;;3.20;0.60;;;;;;;-128.00;-1.00;-1.00;18453;295;7504404;-36
2023/07/29 08:06:36;;;;;;;0.80;0.60;;;;;;;-128.00;-1.00;-1.00;18860;345;7504601;-33
2023/07/29 08:09:02;;;;;;;0.70;0.60;;;;;;;-128.00;-1.00;-1.00;18483;295;7504806;-36
2023/07/29 08:11:28;;;;;;;1.00;0.90;;;;;;;-128.00;-1.00;-1.00;18511;306;7506020;-33
2023/07/29 08:13:54;;;;;;;1.70;0.70;;;;;;;-128.00;-1.00;-1.00;18891;294;7504697;-33
2023/07/29 08:16:21;;;;;;;1.50;0.80;;;;;;;-128.00;-1.00;-1.00;18846;307;7504668;-37
2023/07/29 08:18:47;;;;;;;0.70;0.70;;;;;;;-128.00;-1.00;-1.00;18875;295;7505844;-37
2023/07/29 08:21:13;;;;;;;0.90;0.80;;;;;;;-128.00;-1.00;-1.00;18891;295;7504500;-34
2023/07/29 08:23:40;;;;;;;0.60;0.50;;;;;;;-128.00;-1.00;-1.00;18904;294;7504963;-36
2023/07/29 08:26:06;;;;;;;0.60;0.50;;;;;;;-128.00;-1.00;-1.00;18868;295;7504172;-38
2023/07/29 08:28:34;;;;;;;0.50;0.40;;;;;;;-128.00;-1.00;-1.00;18473;294;7506075;-36
2023/07/29 08:31:00;;;;;;;0.90;0.70;;;;;;;-128.00;-1.00;-1.00;18489;306;7507021;-36
2023/07/29 08:33:25;;;;;;;1.10;0.70;;;;;;;-128.00;-1.00;-1.00;18491;318;7506302;-32
2023/07/29 08:35:51;;;;;;;0.50;0.50;;;;;;;-128.00;-1.00;-1.00;18486;294;7506032;-36
2023/07/29 08:38:17;;;;;;;0.60;0.60;;;;;;;-128.00;-1.00;-1.00;18461;347;7506457;-36
2023/07/29 08:40:46;;;;;;;0.40;0.40;;;;;;;-128.00;-1.00;-1.00;18475;341;7506439;-35
2023/07/29 08:43:11;;;;;;;0.40;0.40;;;;;;;-128.00;-1.00;-1.00;18470;294;7506786;-33
2023/07/29 08:45:37;;;;;;;0.50;0.50;;;;;;;-128.00;-1.00;-1.00;18487;294;7505016;-36
2023/07/29 08:48:08;;;;;;;0.70;0.70;;;;;;;-128.00;-1.00;-1.00;18491;318;7504896;-37
2023/07/29 08:50:33;;;;;;;0.70;0.70;;;;;;;-128.00;-1.00;-1.00;18489;295;7505209;-33
2023/07/29 08:53:00;;;;;;;3.50;0.80;;;;;;;-128.00;-1.00;-1.00;18493;295;7506521;-33
2023/07/29 08:55:26;;;;;;;1.10;0.80;;;;;;;-128.00;-1.00;-1.00;18485;283;7504688;-37
2023/07/29 08:57:51;;;;;;;1.30;1.20;;;;;;;-128.00;-1.00;-1.00;18470;295;7504205;-37
2023/07/29 09:00:17;;;;;;;0.60;0.50;;;;;;;-128.00;-1.00;-1.00;18875;295;7504778;-35
2023/07/29 09:02:43;;;;;;;2.70;0.60;;;;;;;-128.00;-1.00;-1.00;18906;296;7504139;-36
2023/07/29 09:05:10;;;;;;;0.60;0.50;;;;;;;-128.00;-1.00;-1.00;18908;284;7504550;-32
2023/07/29 09:07:36;;;;;;;2.90;0.30;;;;;;;-128.00;-1.00;-1.00;18871;295;7504295;-35
2023/07/29 09:10:02;;;;;;;0.40;0.40;;;;;;;-128.00;-1.00;-1.00;18852;288;7504962;-32
2023/07/29 09:12:28;;;;;;;4.80;0.70;;;;;;;-128.00;-1.00;-1.00;18883;296;7504943;-36
2023/07/29 09:14:54;;;;;;;0.40;0.40;;;;;;;-128.00;-1.00;-1.00;18873;305;7504992;-36
2023/07/29 09:17:22;;;;;;;0.40;0.40;;;;;;;-128.00;-1.00;-1.00;18910;294;7504517;-33
2023/07/29 09:19:50;;;;;;;0.50;0.40;;;;;;;-128.00;-1.00;-1.00;18488;295;7504508;-33
2023/07/29 09:22:20;;;;;;;1.10;0.70;;;;;;;-128.00;-1.00;-1.00;18111;295;7504659;-32
2023/07/29 09:24:46;;;;;;;0.80;0.50;;;;;;;-128.00;-1.00;-1.00;18494;346;7504876;-36
2023/07/29 09:27:25;;;;;;;1.40;0.70;;;;;;;-128.00;-1.00;-1.00;18472;295;7504715;-36
2023/07/29 09:29:50;;;;;;;0.60;0.50;;;;;;;-128.00;-1.00;-1.00;18484;294;7505782;-32
2023/07/29 09:32:23;;;;;;;0.90;0.60;;;;;;;-128.00;-1.00;-1.00;18454;294;7504432;-35
2023/07/29 09:34:49;;;;;;;1.30;0.70;;;;;;;-128.00;-1.00;-1.00;18470;348;7506059;-32
2023/07/29 09:37:21;;;;;;;0.40;0.40;;;;;;;-128.00;-1.00;-1.00;18465;331;7505265;-32
2023/07/29 09:39:47;;;;;;;3.50;1.00;;;;;;;-128.00;-1.00;-1.00;18479;296;7505083;-35
2023/07/29 09:42:18;;;;;;;3.10;0.70;;;;;;;-128.00;-1.00;-1.00;18475;307;7505815;-36
2023/07/29 09:44:44;;;;;;;;;;;;;;;-128.00;-1.00;-1.00;18484;294;7504626;-36
2023/07/29 09:47:09;;;;;;;0.90;0.60;;;;;;;-128.00;-1.00;-1.00;18498;294;7506522;-35
2023/07/29 09:49:36;;;;;;;0.70;0.70;;;;;;;-128.00;-1.00;-1.00;18481;294;7504806;-36
2023/07/29 09:52:03;;;;;;;1.10;0.70;;;;;;;-128.00;-1.00;-1.00;18464;295;7505390;-32
2023/07/29 09:54:30;;;;;;;0.60;0.60;;;;;;;-128.00;-1.00;-1.00;18472;295;7504792;-36
2023/07/29 09:56:56;;;;;;;1.00;0.70;;;;;;;-128.00;-1.00;-1.00;18472;347;7504444;-35
2023/07/29 09:59:23;;;;;;;0.50;0.50;;;;;;;-128.00;-1.00;-1.00;18480;294;7506461;-36
2023/07/29 10:01:50;;;;;;;1.10;0.70;;;;;;;-128.00;-1.00;-1.00;18480;294;7505069;-36
2023/07/29 10:04:15;;;;;;;1.10;0.70;;;;;;;-128.00;-1.00;-1.00;18489;295;7505977;-33
2023/07/29 10:06:42;;;;;;;0.60;0.50;;;;;;;-128.00;-1.00;-1.00;18467;331;7506253;-36
2023/07/29 10:09:08;;;;;;;0.50;0.50;;;;;;;-128.00;-1.00;-1.00;18465;287;7505157;-33
2023/07/29 10:11:34;;;;;;;2.70;0.70;;;;;;;-128.00;-1.00;-1.00;18897;318;7504340;-33
2023/07/29 10:14:00;;;;;;;0.60;0.40;;;;;;;-128.00;-1.00;-1.00;18879;295;7504744;-34
2023/07/29 10:16:26;;;;;;;0.50;0.40;;;;;;;-128.00;-1.00;-1.00;18880;295;7504607;-34
2023/07/29 10:18:53;;;;;;;2.30;0.60;;;;;;;-128.00;-1.00;-1.00;18893;297;7505033;-36
2023/07/29 10:21:19;;;;;;;3.00;0.60;;;;;;;-128.00;-1.00;-1.00;18879;295;7504516;-32
2023/07/29 10:23:49;;;;;;;0.70;0.70;;;;;;;-128.00;-1.00;-1.00;18871;298;7505968;-32
2023/07/29 10:26:14;;;;;;;1.00;0.70;;;;;;;-128.00;-1.00;-1.00;18478;295;7506275;-36
2023/07/29 10:28:41;;;;;;;0.60;0.50;;;;;;;-128.00;-1.00;-1.00;18511;294;7504863;-32
2023/07/29 10:31:07;;;;;;;0.60;0.50;;;;;;;-128.00;-1.00;-1.00;18480;295;7505905;-36
2023/07/29 10:33:33;;;;;;;0.40;0.30;;;;;;;-128.00;-1.00;-1.00;18480;294;7506332;-32
2023/07/29 10:35:59;;;;;;;0.60;0.50;;;;;;;-128.00;-1.00;-1.00;18478;295;7505948;-35
2023/07/29 10:38:25;;;;;;;1.20;0.40;;;;;;;-128.00;-1.00;-1.00;18875;331;7504311;-36
2023/07/29 10:40:57;;;;;;;0.70;0.50;;;;;;;-128.00;-1.00;-1.00;18869;318;7506236;-31
2023/07/29 10:43:31;;;;;;;0.50;0.40;;;;;;;-128.00;-1.00;-1.00;18491;295;7505064;-36
2023/07/29 10:45:57;;;;;;;0.40;0.40;;;;;;;-128.00;-1.00;-1.00;18490;295;7505140;-32
2023/07/29 10:48:39;;;;;;;0.50;0.50;;;;;;;-128.00;-1.00;-1.00;18486;295;7506035;-36
2023/07/29 10:51:29;;;;;;;0.60;0.50;;;;;;;-128.00;-1.00;-1.00;18482;294;7504735;-32
2023/07/29 10:54:14;;;;;;;0.50;0.30;;;;;;;-128.00;-1.00;-1.00;18494;295;7506429;-36
2023/07/29 10:56:41;;;;;;;0.20;0.20;;;;;;;-128.00;-1.00;-1.00;18490;347;7505784;-36
2023/07/29 10:59:33;;;;;;;0.50;0.40;;;;;;;-128.00;-1.00;-1.00;18473;295;7505619;-36
2023/07/29 11:02:00;;;;;;;0.80;0.80;;;;;;;-128.00;-1.00;-1.00;18470;318;7504496;-36
2023/07/29 11:04:30;;;;;;;0.40;0.30;;;;;;;-128.00;-1.00;-1.00;18466;295;7504362;-35
2023/07/29 11:07:08;;;;;;;;;;;;;;;-128.00;-1.00;-1.00;18519;295;7504508;-32
2023/07/29 11:09:53;;;;;;;0.70;0.70;;;;;;;-128.00;-1.00;-1.00;18472;294;7504723;-36
2023/07/29 11:12:34;;;;;;;1.20;0.40;;;;;;;-128.00;-1.00;-1.00;18485;295;7505044;-32
2023/07/29 11:15:12;;;;;;;0.40;0.40;;;;;;;-128.00;-1.00;-1.00;18504;318;7505776;-35
2023/07/29 11:17:43;;;;;;;1.10;0.30;;;;;;;-128.00;-1.00;-1.00;18440;295;7504464;-32
2023/07/29 11:20:09;;;;;;;1.20;0.40;;;;;;;-128.00;-1.00;-1.00;18484;339;7504264;-35
2023/07/29 11:22:35;;;;;;;0.70;0.50;;;;;;;-128.00;-1.00;-1.00;18472;296;7504762;-32
2023/07/29 11:25:01;;;;;;;0.60;0.60;;;;;;;-128.00;-1.00;-1.00;18492;295;7505771;-32
2023/07/29 11:27:27;;;;;;;0.60;0.50;;;;;;;-128.00;-1.00;-1.00;18496;295;7504668;-32
2023/07/29 11:30:00;;;;;;;1.00;0.50;;;;;;;-128.00;-1.00;-1.00;18893;295;7504577;-31
2023/07/29 11:32:26;;;;;;;1.00;0.50;;;;;;;-128.00;-1.00;-1.00;18486;335;7504175;-36
2023/07/29 11:34:52;;;;;;;0.50;0.50;;;;;;;-128.00;-1.00;-1.00;18447;306;7506148;-37
2023/07/29 11:37:20;;;;;;;0.40;0.40;;;;;;;-128.00;-1.00;-1.00;18877;294;7505667;-36
2023/07/29 11:39:45;;;;;;;0.70;0.70;;;;;;;-128.00;-1.00;-1.00;18478;294;7504213;-36
2023/07/29 11:42:12;;;;;;;0.70;0.50;;;;;;;-128.00;-1.00;-1.00;18917;295;7504429;-32
2023/07/29 11:44:38;;;;;;;0.70;0.40;;;;;;;-128.00;-1.00;-1.00;18470;294;7504926;-33
2023/07/29 11:47:07;;;;;;;0.50;0.50;;;;;;;-128.00;-1.00;-1.00;18506;339;7504611;-33
2023/07/29 11:49:34;;;;;;;0.20;0.20;;;;;;;-128.00;-1.00;-1.00;18477;295;7504914;-38
2023/07/29 11:52:00;;;;;;;0.40;0.40;;;;;;;-128.00;-1.00;-1.00;18474;295;7504846;-36
2023/07/29 11:54:25;;;;;;;1.50;0.50;;;;;;;-128.00;-1.00;-1.00;18476;295;7504809;-32
2023/07/29 11:56:51;;;;;;;1.60;0.30;;;;;;;-128.00;-1.00;-1.00;18484;295;7504630;-33
2023/07/29 11:59:17;;;;;;;0.70;0.50;;;;;;;-128.00;-1.00;-1.00;18877;295;7505217;-36
2023/07/29 12:01:43;;;;;;;0.50;0.40;;;;;;;-128.00;-1.00;-1.00;18889;347;7504297;-35
2023/07/29 12:04:09;;;;;;;0.90;0.50;;;;;;;-128.00;-1.00;-1.00;18900;295;7504524;-34
2023/07/29 12:06:35;;;;;;;1.10;0.50;;;;;;;-128.00;-1.00;-1.00;18904;295;7504214;-32
2023/07/29 12:09:01;;;;;;;1.20;0.50;;;;;;;-128.00;-1.00;-1.00;18861;295;7504526;-35
2023/07/29 12:11:28;;;;;;;0.40;0.30;;;;;;;-128.00;-1.00;-1.00;18861;295;7504960;-32
2023/07/29 12:13:54;;;;;;;0.40;0.40;;;;;;;-128.00;-1.00;-1.00;18872;287;7505018;-36